createdAt,value
2019-03-24T00:02:29.096Z,102372.28
2019-03-24T00:05:00.570Z,102370.39
2019-03-24T00:07:33.390Z,102378.09
2019-03-24T00:10:05.415Z,102378.49
2019-03-24T00:12:39.660Z,102374.17
2019-03-24T00:15:10.490Z,102366.44
2019-03-24T00:17:44.034Z,102369.67
2019-03-24T00:20:18.596Z,102366.78
2019-03-24T00:22:49.927Z,102369.78
2019-03-24T00:25:21.656Z,102366.31
2019-03-24T00:27:52.498Z,102363.31
2019-03-24T00:30:24.580Z,102363.03
2019-03-24T00:32:56.784Z,102359.78
2019-03-24T00:35:27.879Z,102363.09
2019-03-24T00:38:01.305Z,102363.95
2019-03-24T00:40:35.074Z,102355.25
2019-03-24T00:43:06.230Z,102350.85
2019-03-24T00:45:37.366Z,102347.20
2019-03-24T00:48:09.164Z,102351.20
2019-03-24T00:50:40.487Z,102338.95
2019-03-24T00:53:12.498Z,102336.95
2019-03-24T00:55:45.798Z,102343.02
2019-03-24T00:58:18.219Z,102344.32
2019-03-24T01:00:52.160Z,102345.73
2019-03-24T01:03:25.762Z,102342.72
2019-03-24T01:05:57.749Z,102339.83
2019-03-24T01:08:29.429Z,102336.38
2019-03-24T01:11:02.137Z,102330.45
2019-03-24T01:13:33.569Z,102332.48
2019-03-24T01:16:05.926Z,102326.93
2019-03-24T01:18:38.837Z,102332.09
2019-03-24T01:21:10.080Z,102330.97
2019-03-24T01:23:41.291Z,102326.31
2019-03-24T01:26:12.075Z,102322.29
2019-03-24T01:28:43.583Z,102328.83
2019-03-24T01:31:16.518Z,102326.06
2019-03-24T01:33:51.077Z,102325.97
2019-03-24T01:36:24.396Z,102320.92
2019-03-24T01:38:56.527Z,102326.62
2019-03-24T01:41:28.486Z,102331.30
2019-03-24T01:44:00.223Z,102332.50
2019-03-24T01:46:32.512Z,102329.97
2019-03-24T01:49:06.366Z,102330.12
2019-03-24T01:51:37.526Z,102322.36
2019-03-24T01:54:08.707Z,102322.07
2019-03-24T01:56:40.599Z,102327.98
2019-03-24T01:59:12.200Z,102317.48
2019-03-24T02:01:45.306Z,102321.61
2019-03-24T02:04:16.464Z,102318.00
2019-03-24T02:06:48.008Z,102317.84
2019-03-24T02:09:19.165Z,102316.39
2019-03-24T02:11:51.297Z,102318.00
2019-03-24T02:14:23.330Z,102312.67
2019-03-24T02:16:54.847Z,102313.13
2019-03-24T02:19:27.027Z,102317.34
2019-03-24T02:21:58.142Z,102308.16
2019-03-24T02:24:29.706Z,102310.38
2019-03-24T02:27:00.523Z,102303.44
2019-03-24T02:29:33.466Z,102309.39
2019-03-24T02:32:04.592Z,102309.98
2019-03-24T02:34:36.767Z,102298.14
2019-03-24T02:37:08.219Z,102306.38
2019-03-24T02:39:41.201Z,102298.65
2019-03-24T02:42:12.591Z,102297.95
2019-03-24T02:44:45.221Z,102303.36
2019-03-24T02:47:16.939Z,102295.99
2019-03-24T02:49:51.494Z,102295.73
2019-03-24T02:52:22.503Z,102303.30
2019-03-24T02:54:55.231Z,102295.16
2019-03-24T02:57:27.190Z,102292.93
2019-03-24T02:59:58.313Z,102289.14
2019-03-24T03:02:29.047Z,102286.91
2019-03-24T03:05:01.411Z,102290.93
2019-03-24T03:07:33.093Z,102294.87
2019-03-24T03:10:05.469Z,102287.89
2019-03-24T03:12:36.565Z,102283.77
2019-03-24T03:15:07.953Z,102286.19
2019-03-24T03:17:39.143Z,102280.75
2019-03-24T03:20:13.141Z,102290.61
2019-03-24T03:22:45.335Z,102287.98
2019-03-24T03:25:17.255Z,102280.38
2019-03-24T03:27:51.077Z,102282.33
2019-03-24T03:30:24.137Z,102280.84
2019-03-24T03:32:55.274Z,102283.48
2019-03-24T03:35:28.667Z,102287.22
2019-03-24T03:38:00.379Z,102281.47
2019-03-24T03:40:34.288Z,102275.98
2019-03-24T03:43:05.026Z,102282.13
2019-03-24T03:45:39.151Z,102278.95
2019-03-24T03:48:09.345Z,102272.91
2019-03-24T03:50:42.576Z,102271.73
2019-03-24T03:53:15.162Z,102274.05
2019-03-24T03:55:46.284Z,102274.68
2019-03-24T03:58:16.820Z,102271.81
2019-03-24T04:00:48.078Z,102275.10
2019-03-24T04:03:19.426Z,102266.81
2019-03-24T04:05:52.324Z,102270.23
2019-03-24T04:08:24.728Z,102271.97
2019-03-24T04:10:57.686Z,102270.33
2019-03-24T04:13:28.670Z,102263.77
2019-03-24T04:16:00.630Z,102263.49
2019-03-24T04:18:31.358Z,102262.33
2019-03-24T04:21:05.713Z,102253.61
2019-03-24T04:23:36.805Z,102252.58
2019-03-24T04:26:07.884Z,102255.65
2019-03-24T04:28:39.583Z,102251.86
2019-03-24T04:31:11.974Z,102246.30
2019-03-24T04:33:44.312Z,102243.67
2019-03-24T04:36:16.371Z,102244.83
2019-03-24T04:38:50.361Z,102244.03
2019-03-24T04:41:22.380Z,102247.13
2019-03-24T04:43:53.560Z,102244.15
2019-03-24T04:46:26.042Z,102250.05
2019-03-24T04:48:56.775Z,102248.36
2019-03-24T04:51:30.798Z,102238.08
2019-03-24T04:54:01.934Z,102248.78
2019-03-24T04:56:33.572Z,102249.27
2019-03-24T04:59:06.076Z,102247.41
2019-03-24T05:01:39.400Z,102250.66
2019-03-24T05:04:10.505Z,102250.53
2019-03-24T05:06:44.563Z,102246.94
2019-03-24T05:09:17.796Z,102248.62
2019-03-24T05:11:50.885Z,102254.58
2019-03-24T05:14:23.466Z,102239.23
2019-03-24T05:16:56.270Z,102246.25
2019-03-24T05:19:29.587Z,102257.85
2019-03-24T05:22:04.454Z,102255.42
2019-03-24T05:24:36.152Z,102253.20
2019-03-24T05:27:07.202Z,102254.34
2019-03-24T05:29:41.431Z,102252.62
2019-03-24T05:32:12.174Z,102248.55
2019-03-24T05:34:43.908Z,102253.91
2019-03-24T05:37:16.178Z,102247.44
2019-03-24T05:39:47.362Z,102243.34
2019-03-24T05:42:18.494Z,102253.64
2019-03-24T05:44:52.751Z,102237.02
2019-03-24T05:47:24.303Z,102248.83
2019-03-24T05:50:00.763Z,102245.34
2019-03-24T05:52:32.749Z,102247.30
2019-03-24T05:55:06.194Z,102242.94
2019-03-24T05:57:38.380Z,102240.41
2019-03-24T06:00:10.456Z,102246.55
2019-03-24T06:02:45.449Z,102245.30
2019-03-24T06:05:16.943Z,102238.96
2019-03-24T06:07:48.692Z,102245.18
2019-03-24T06:10:20.150Z,102243.84
2019-03-24T06:12:51.361Z,102239.86
2019-03-24T06:15:22.984Z,102246.81
2019-03-24T06:17:53.737Z,102243.14
2019-03-24T06:20:24.835Z,102249.98
2019-03-24T06:22:56.834Z,102252.68
2019-03-24T06:25:28.261Z,102247.59
2019-03-24T06:28:00.368Z,102251.61
2019-03-24T06:30:33.043Z,102256.06
2019-03-24T06:33:05.052Z,102253.54
2019-03-24T06:35:36.598Z,102256.73
2019-03-24T06:38:10.557Z,102260.28
2019-03-24T06:40:45.307Z,102257.60
2019-03-24T06:43:16.746Z,102257.02
2019-03-24T06:45:49.425Z,102253.81
2019-03-24T06:48:22.229Z,102252.84
2019-03-24T06:50:53.695Z,102248.81
2019-03-24T06:53:28.256Z,102244.13
2019-03-24T06:56:01.007Z,102250.53
2019-03-24T06:58:34.283Z,102244.59
2019-03-24T07:01:07.126Z,102241.02
2019-03-24T07:03:38.768Z,102243.17
2019-03-24T07:06:10.000Z,102244.47
2019-03-24T07:08:40.733Z,102243.94
2019-03-24T07:11:13.730Z,102238.32
2019-03-24T07:13:44.231Z,102237.02
2019-03-24T07:16:15.414Z,102242.88
2019-03-24T07:18:47.681Z,102240.73
2019-03-24T07:21:18.416Z,102248.35
2019-03-24T07:23:51.457Z,102242.81
2019-03-24T07:26:23.066Z,102244.48
2019-03-24T07:28:54.227Z,102244.59
2019-03-24T07:31:26.952Z,102234.79
2019-03-24T07:34:00.742Z,102229.27
2019-03-24T07:36:33.114Z,102231.69
2019-03-24T07:39:08.028Z,102233.84
2019-03-24T07:41:39.136Z,102229.64
2019-03-24T07:44:10.434Z,102227.41
2019-03-24T07:46:42.602Z,102226.23
2019-03-24T07:49:13.407Z,102222.52
2019-03-24T07:51:44.139Z,102225.26
2019-03-24T07:54:15.834Z,102220.98
2019-03-24T07:56:47.772Z,102224.50
2019-03-24T07:59:18.535Z,102213.45
2019-03-24T08:01:49.283Z,102214.92
2019-03-24T08:04:20.311Z,102221.44
2019-03-24T08:06:51.778Z,102220.31
2019-03-24T08:09:23.265Z,102213.16
2019-03-24T08:11:59.923Z,102218.06
2019-03-24T08:14:35.185Z,102213.88
2019-03-24T08:17:06.861Z,102212.45
2019-03-24T08:19:37.612Z,102205.70
2019-03-24T08:22:10.763Z,102206.39
2019-03-24T08:24:44.528Z,102208.86
2019-03-24T08:27:15.981Z,102204.72
2019-03-24T08:29:48.262Z,102204.73
2019-03-24T08:32:20.812Z,102203.13
2019-03-24T08:34:56.055Z,102195.80
2019-03-24T08:37:27.734Z,102190.45
2019-03-24T08:39:59.636Z,102189.61
2019-03-24T08:42:30.814Z,102189.03
2019-03-24T08:45:02.085Z,102185.16
2019-03-24T08:47:33.493Z,102188.23
2019-03-24T08:50:05.058Z,102181.69
2019-03-24T08:52:35.830Z,102181.38
2019-03-24T08:55:09.051Z,102182.47
2019-03-24T08:57:42.669Z,102176.50
2019-03-24T09:00:14.717Z,102175.45
2019-03-24T09:02:47.711Z,102187.23
2019-03-24T09:05:19.217Z,102196.32
2019-03-24T09:07:51.140Z,102200.63
2019-03-24T09:10:22.318Z,102205.29
2019-03-24T09:12:54.330Z,102212.00
2019-03-24T09:15:26.405Z,102201.98
2019-03-24T09:17:58.031Z,102201.84
2019-03-24T09:20:29.763Z,102200.49
2019-03-24T09:23:20.456Z,102202.73
2019-03-24T09:25:52.812Z,102209.05
2019-03-24T09:28:24.414Z,102208.05
2019-03-24T09:30:57.353Z,102197.38
2019-03-24T09:33:28.610Z,102204.44
2019-03-24T09:36:00.841Z,102203.13
2019-03-24T09:38:34.100Z,102208.45
2019-03-24T09:41:07.331Z,102204.13
2019-03-24T09:43:38.404Z,102213.08
2019-03-24T09:46:12.094Z,102203.20
2019-03-24T09:48:43.852Z,102209.41
2019-03-24T09:51:16.043Z,102210.62
2019-03-24T09:53:47.191Z,102208.20
2019-03-24T09:56:19.864Z,102207.03
2019-03-24T09:58:51.328Z,102208.89
2019-03-24T10:01:23.780Z,102212.02
2019-03-24T10:03:54.844Z,102207.89
2019-03-24T10:06:26.584Z,102215.77
2019-03-24T10:08:58.182Z,102211.67
2019-03-24T10:11:30.575Z,102218.02
2019-03-24T10:14:04.230Z,102213.32
2019-03-24T10:16:35.001Z,102206.80
2019-03-24T10:19:13.908Z,102210.88
2019-03-24T10:21:40.990Z,102217.33
2019-03-24T10:24:12.964Z,102208.88
2019-03-24T10:26:46.669Z,102203.61
2019-03-24T10:29:17.795Z,102208.04
2019-03-24T10:31:52.758Z,102203.66
2019-03-24T10:34:23.775Z,102207.36
2019-03-24T10:36:57.420Z,102203.36
2019-03-24T10:39:28.179Z,102201.22
2019-03-24T10:42:02.579Z,102205.94
2019-03-24T10:44:33.522Z,102203.14
2019-03-24T10:47:04.275Z,102200.16
2019-03-24T10:49:36.160Z,102203.61
2019-03-24T10:52:07.897Z,102205.22
2019-03-24T10:54:38.655Z,102204.50
2019-03-24T10:57:11.176Z,102199.34
2019-03-24T10:59:43.921Z,102200.31
2019-03-24T11:02:15.195Z,102204.13
2019-03-24T11:04:46.041Z,102197.14
2019-03-24T11:07:18.500Z,102190.69
2019-03-24T11:09:49.793Z,102196.84
2019-03-24T11:12:22.854Z,102194.59
2019-03-24T11:14:55.068Z,102182.09
2019-03-24T11:17:27.544Z,102173.70
2019-03-24T11:20:00.942Z,102173.27
2019-03-24T11:22:33.618Z,102159.19
2019-03-24T11:25:04.646Z,102165.27
2019-03-24T11:27:42.989Z,102157.40
2019-03-24T11:30:14.624Z,102149.52
2019-03-24T11:32:46.014Z,102146.66
2019-03-24T11:35:18.050Z,102146.66
2019-03-24T11:37:51.738Z,102136.92
2019-03-24T11:40:23.912Z,102136.92
2019-03-24T11:42:57.163Z,102130.75
2019-03-24T11:45:28.964Z,102130.55
2019-03-24T11:48:01.686Z,102128.64
2019-03-24T11:50:32.438Z,102133.33
2019-03-24T11:53:05.490Z,102133.20
2019-03-24T11:55:37.381Z,102125.66
2019-03-24T11:58:10.240Z,102115.91
2019-03-24T12:00:44.596Z,102107.47
2019-03-24T12:03:17.134Z,102113.79
2019-03-24T12:05:53.967Z,102113.56
2019-03-24T12:08:24.764Z,102103.92
2019-03-24T12:10:56.214Z,102104.18
2019-03-24T12:13:27.963Z,102106.36
2019-03-24T12:15:59.984Z,102104.04
2019-03-24T12:18:35.493Z,102105.78
2019-03-24T12:21:07.076Z,102107.39
2019-03-24T12:23:41.330Z,102105.77
2019-03-24T12:26:12.762Z,102102.19
2019-03-24T12:28:45.615Z,102102.20
2019-03-24T12:31:17.919Z,102093.84
2019-03-24T12:33:49.842Z,102097.33
2019-03-24T12:36:22.152Z,102101.21
2019-03-24T12:38:53.788Z,102099.87
2019-03-24T12:41:24.505Z,102089.72
2019-03-24T12:43:57.321Z,102095.49
2019-03-24T12:46:29.473Z,102093.52
2019-03-24T12:49:00.493Z,102091.31
2019-03-24T12:51:31.932Z,102091.31
2019-03-24T12:54:03.758Z,102085.77
2019-03-24T12:56:35.926Z,102087.80
2019-03-24T12:59:08.666Z,102082.25
2019-03-24T13:01:39.997Z,102078.63
2019-03-24T13:04:12.155Z,102075.67
2019-03-24T13:06:43.694Z,102070.98
2019-03-24T13:09:14.436Z,102078.08
2019-03-24T13:11:45.185Z,102076.36
2019-03-24T13:14:18.724Z,102081.88
2019-03-24T13:16:50.005Z,102077.52
2019-03-24T13:19:21.921Z,102084.48
2019-03-24T13:21:52.963Z,102087.26
2019-03-24T13:24:24.216Z,102074.20
2019-03-24T13:26:56.521Z,102074.20
2019-03-24T13:29:30.598Z,102081.18
2019-03-24T13:32:03.753Z,102084.06
2019-03-24T13:34:37.404Z,102077.42
2019-03-24T13:37:09.341Z,102079.27
2019-03-24T13:39:41.462Z,102075.05
2019-03-24T13:42:12.233Z,102075.38
2019-03-24T13:44:45.265Z,102070.95
2019-03-24T13:47:15.998Z,102065.63
2019-03-24T13:49:47.932Z,102064.45
2019-03-24T13:52:19.707Z,102068.45
2019-03-24T13:54:52.072Z,102068.36
2019-03-24T13:57:23.215Z,102070.17
2019-03-24T13:59:55.628Z,102070.52
2019-03-24T14:02:26.655Z,102067.55
2019-03-24T14:04:58.112Z,102061.33
2019-03-24T14:07:28.854Z,102059.42
2019-03-24T14:10:00.362Z,102056.66
2019-03-24T14:12:31.192Z,102054.20
2019-03-24T14:15:02.443Z,102057.40
2019-03-24T14:17:36.311Z,102051.04
2019-03-24T14:20:08.601Z,102049.94
2019-03-24T14:22:40.226Z,102059.62
2019-03-24T14:25:12.326Z,102050.58
2019-03-24T14:27:44.878Z,102053.31
2019-03-24T14:30:27.244Z,102045.38
2019-03-24T14:32:57.963Z,102051.11
2019-03-24T14:35:29.621Z,102054.09
2019-03-24T14:38:00.441Z,102051.02
2019-03-24T14:40:31.927Z,102055.43
2019-03-24T14:43:02.904Z,102059.98
2019-03-24T14:45:36.905Z,102057.31
2019-03-24T14:48:07.655Z,102052.61
2019-03-24T14:50:40.370Z,102045.47
2019-03-24T14:53:13.802Z,102060.62
2019-03-24T14:55:45.240Z,102063.98
2019-03-24T14:58:15.949Z,102059.91
2019-03-24T15:00:48.903Z,102057.53
2019-03-24T15:03:20.527Z,102059.12
2019-03-24T15:05:52.325Z,102051.72
2019-03-24T15:08:23.057Z,102057.89
2019-03-24T15:10:54.582Z,102053.06
2019-03-24T15:13:25.711Z,102051.77
2019-03-24T15:15:58.593Z,102055.46
2019-03-24T15:18:29.738Z,102059.70
2019-03-24T15:21:05.883Z,102056.83
2019-03-24T15:23:36.494Z,102046.82
2019-03-24T15:26:08.535Z,102041.11
2019-03-24T15:28:43.998Z,102033.61
2019-03-24T15:31:19.880Z,102019.61
2019-03-24T15:33:51.783Z,102023.58
2019-03-24T15:36:23.643Z,102022.04
2019-03-24T15:38:54.688Z,102015.19
2019-03-24T15:41:25.441Z,102017.87
2019-03-24T15:43:56.157Z,102008.72
2019-03-24T15:46:29.769Z,102004.06
2019-03-24T15:49:01.606Z,102002.05
2019-03-24T15:51:34.958Z,102008.20
2019-03-24T15:54:05.693Z,102005.26
2019-03-24T15:56:37.224Z,102002.59
2019-03-24T15:59:08.265Z,101996.70
2019-03-24T16:01:40.643Z,101991.92
2019-03-24T16:04:11.808Z,101987.63
2019-03-24T16:06:43.374Z,101995.38
2019-03-24T16:09:14.086Z,101981.45
2019-03-24T16:11:44.933Z,101989.85
2019-03-24T16:14:15.666Z,101986.75
2019-03-24T16:16:47.405Z,101986.56
2019-03-24T16:19:18.115Z,101979.83
2019-03-24T16:21:49.234Z,101973.25
2019-03-24T16:24:20.756Z,101978.11
2019-03-24T16:26:52.099Z,101967.58
2019-03-24T16:29:25.746Z,101963.05
2019-03-24T16:31:58.931Z,101972.34
2019-03-24T16:34:29.713Z,101964.17
2019-03-24T16:37:01.089Z,101969.20
2019-03-24T16:39:32.375Z,101966.94
2019-03-24T16:42:03.528Z,101971.09
2019-03-24T16:44:34.657Z,101972.42
2019-03-24T16:47:11.617Z,101978.87
2019-03-24T16:49:45.779Z,101975.22
2019-03-24T16:52:16.960Z,101974.43
2019-03-24T16:54:48.099Z,101974.06
2019-03-24T16:57:20.233Z,101965.87
2019-03-24T16:59:51.261Z,101968.59
2019-03-24T17:02:23.718Z,101960.24
2019-03-24T17:04:54.866Z,101972.82
2019-03-24T17:07:26.170Z,101962.37
2019-03-24T17:09:57.504Z,101963.79
2019-03-24T17:12:28.636Z,101963.05
2019-03-24T17:15:00.186Z,101954.42
2019-03-24T17:17:35.475Z,101968.97
2019-03-24T17:20:08.280Z,101954.83
2019-03-24T17:22:39.975Z,101967.07
2019-03-24T17:25:14.328Z,101968.38
2019-03-24T17:27:46.886Z,101962.30
2019-03-24T17:30:20.631Z,101962.63
2019-03-24T17:32:55.066Z,101955.47
2019-03-24T17:35:27.051Z,101952.77
2019-03-24T17:38:01.382Z,101945.80
2019-03-24T17:40:38.855Z,101948.16
2019-03-24T17:43:08.916Z,101952.67
2019-03-24T17:45:41.511Z,101959.13
2019-03-24T17:48:19.103Z,101957.58
2019-03-24T17:50:50.439Z,101960.67
2019-03-24T17:53:25.303Z,101964.12
2019-03-24T17:55:57.356Z,101960.16
2019-03-24T17:58:32.588Z,101971.94
2019-03-24T18:01:04.891Z,101964.75
2019-03-24T18:03:37.511Z,101962.83
2019-03-24T18:06:08.921Z,101966.91
2019-03-24T18:08:44.622Z,101971.38
2019-03-24T18:11:17.041Z,101978.84
2019-03-24T18:13:48.962Z,101971.83
2019-03-24T18:16:21.815Z,101971.59
2019-03-24T18:18:53.981Z,101971.63
2019-03-24T18:21:27.650Z,101974.49
2019-03-24T18:24:00.606Z,101973.59
2019-03-24T18:26:32.341Z,101971.03
2019-03-24T18:29:04.565Z,101976.45
2019-03-24T18:31:35.611Z,101976.28
2019-03-24T18:34:08.427Z,101965.21
2019-03-24T18:36:42.695Z,101975.86
2019-03-24T18:39:14.915Z,101973.75
2019-03-24T18:41:47.425Z,101980.84
2019-03-24T18:44:22.665Z,101978.91
2019-03-24T18:46:54.667Z,101977.56
2019-03-24T18:49:26.515Z,101975.27
2019-03-24T18:51:57.700Z,101979.67
2019-03-24T18:54:31.680Z,101985.02
2019-03-24T18:57:04.526Z,101982.92
2019-03-24T18:59:35.524Z,101977.62
2019-03-24T19:02:08.727Z,101974.72
2019-03-24T19:04:43.106Z,101974.73
2019-03-24T19:07:14.505Z,101972.76
2019-03-24T19:09:46.523Z,101975.83
2019-03-24T19:12:19.217Z,101978.61
2019-03-24T19:14:53.091Z,101979.14
2019-03-24T19:17:25.748Z,101980.39
2019-03-24T19:19:59.369Z,101975.67
2019-03-24T19:22:33.847Z,101977.48
2019-03-24T19:25:09.271Z,101979.30
2019-03-24T19:27:41.874Z,101974.58
2019-03-24T19:30:18.252Z,101974.71
2019-03-24T19:32:51.343Z,101980.59
2019-03-24T19:35:28.366Z,101973.31
2019-03-24T19:38:01.460Z,101972.36
2019-03-24T19:40:35.553Z,101969.27
2019-03-24T19:43:07.032Z,101968.82
2019-03-24T19:45:38.296Z,101957.98
2019-03-24T19:48:09.858Z,101965.45
2019-03-24T19:50:42.183Z,101969.17
2019-03-24T19:53:13.507Z,101976.86
2019-03-24T19:55:44.540Z,101971.29
2019-03-24T19:58:16.152Z,101972.17
2019-03-24T20:00:48.987Z,101965.33
2019-03-24T20:03:21.526Z,101959.84
2019-03-24T20:05:53.657Z,101961.96
2019-03-24T20:08:24.954Z,101957.40
2019-03-24T20:10:57.247Z,101964.33
2019-03-24T20:13:28.038Z,101961.42
2019-03-24T20:15:59.809Z,101959.81
2019-03-24T20:18:31.233Z,101957.95
2019-03-24T20:21:05.632Z,101963.31
2019-03-24T20:23:39.510Z,101961.17
2019-03-24T20:26:10.317Z,101963.75
2019-03-24T20:28:41.416Z,101962.84
2019-03-24T20:31:13.747Z,101961.50
2019-03-24T20:33:46.558Z,101960.97
2019-03-24T20:36:22.193Z,101950.02
2019-03-24T20:38:57.041Z,101956.43
2019-03-24T20:41:28.513Z,101959.41
2019-03-24T20:43:59.758Z,101959.58
2019-03-24T20:46:31.025Z,101960.16
2019-03-24T20:49:02.639Z,101968.31
2019-03-24T20:51:36.412Z,101962.77
2019-03-24T20:54:08.483Z,101963.81
2019-03-24T20:56:39.942Z,101965.20
2019-03-24T20:59:11.119Z,101958.31
2019-03-24T21:01:43.144Z,101963.58
2019-03-24T21:04:14.255Z,101953.19
2019-03-24T21:06:46.233Z,101962.50
2019-03-24T21:09:18.072Z,101958.19
2019-03-24T21:11:49.360Z,101959.09
2019-03-24T21:14:20.392Z,101964.82
2019-03-24T21:16:51.855Z,101960.67
2019-03-24T21:19:23.810Z,101955.38
2019-03-24T21:21:57.017Z,101952.95
2019-03-24T21:24:28.852Z,101960.03
2019-03-24T21:26:59.722Z,101960.69
2019-03-24T21:29:31.315Z,101962.25
2019-03-24T21:32:03.898Z,101954.12
2019-03-24T21:34:35.028Z,101949.53
2019-03-24T21:37:09.565Z,101948.24
2019-03-24T21:39:40.687Z,101945.09
2019-03-24T21:42:17.057Z,101946.23
2019-03-24T21:44:47.886Z,101948.06
2019-03-24T21:47:21.271Z,101942.58
2019-03-24T21:49:54.383Z,101938.22
2019-03-24T21:52:27.918Z,101937.69
2019-03-24T21:55:03.127Z,101925.73
2019-03-24T21:57:34.325Z,101935.93
2019-03-24T22:00:08.873Z,101931.63
2019-03-24T22:02:41.251Z,101922.69
2019-03-24T22:05:15.412Z,101923.73
2019-03-24T22:07:53.027Z,101923.16
2019-03-24T22:10:28.138Z,101927.95
2019-03-24T22:13:01.790Z,101930.74
2019-03-24T22:15:34.791Z,101934.27
2019-03-24T22:18:06.396Z,101925.25
2019-03-24T22:20:48.268Z,101927.84
2019-03-24T22:23:13.869Z,101929.75
2019-03-24T22:25:45.762Z,101927.90
2019-03-24T22:28:18.357Z,101926.45
2019-03-24T22:30:49.078Z,101924.66
2019-03-24T22:33:21.433Z,101927.41
2019-03-24T22:35:53.092Z,101924.56
2019-03-24T22:38:26.095Z,101926.13
2019-03-24T22:40:57.901Z,101918.83
2019-03-24T22:43:29.614Z,101908.47
2019-03-24T22:46:03.430Z,101912.73
2019-03-24T22:48:36.494Z,101904.73
2019-03-24T22:51:10.122Z,101904.98
2019-03-24T22:53:42.057Z,101907.91
2019-03-24T22:56:15.997Z,101896.64
2019-03-24T22:58:48.305Z,101893.75
2019-03-24T23:01:22.690Z,101894.20
2019-03-24T23:03:56.364Z,101890.27
2019-03-24T23:06:28.904Z,101887.32
2019-03-24T23:09:02.045Z,101884.64
2019-03-24T23:11:34.668Z,101877.70
2019-03-24T23:14:07.125Z,101877.35
2019-03-24T23:16:40.133Z,101880.66
2019-03-24T23:19:12.008Z,101873.95
2019-03-24T23:21:44.044Z,101873.44
2019-03-24T23:24:18.864Z,101873.89
2019-03-24T23:26:55.532Z,101867.70
2019-03-24T23:29:27.334Z,101865.09
2019-03-24T23:31:58.348Z,101860.98
2019-03-24T23:34:29.924Z,101857.91
2019-03-24T23:37:01.727Z,101856.52
2019-03-24T23:39:39.871Z,101853.09
2019-03-24T23:42:14.139Z,101848.14
2019-03-24T23:44:47.901Z,101831.67
2019-03-24T23:47:21.807Z,101832.38
2019-03-24T23:49:54.288Z,101834.27
2019-03-24T23:52:28.704Z,101827.81
2019-03-24T23:55:03.670Z,101825.69
2019-03-24T23:57:35.147Z,101827.00
